createdAt,value
2023-05-12T00:01:18.255Z,10.07
2023-05-12T00:03:45.331Z,10.97
2023-05-12T00:06:12.504Z,11.07
2023-05-12T00:08:39.371Z,10.17
2023-05-12T00:11:06.264Z,10.80
2023-05-12T00:13:33.142Z,10.27
2023-05-12T00:16:00.198Z,10.33
2023-05-12T00:18:27.668Z,10.17
2023-05-12T00:20:54.962Z,9.53
2023-05-12T00:23:22.842Z,9.17
2023-05-12T00:25:50.566Z,10.50
2023-05-12T00:28:19.398Z,9.73
2023-05-12T00:30:46.254Z,10.47
2023-05-12T00:33:13.406Z,10.80
2023-05-12T00:35:40.430Z,9.43
2023-05-12T00:38:07.247Z,11.20
2023-05-12T00:40:34.364Z,10.43
2023-05-12T00:43:01.271Z,9.90
2023-05-12T00:45:28.225Z,9.97
2023-05-12T00:47:55.163Z,10.20
2023-05-12T00:50:22.727Z,11.90
2023-05-12T00:52:50.194Z,8.93
2023-05-12T00:55:17.304Z,10.13
2023-05-12T00:57:44.583Z,10.60
2023-05-12T01:00:12.447Z,11.63
2023-05-12T01:02:39.692Z,10.40
2023-05-12T01:05:07.140Z,10.23
2023-05-12T01:07:34.025Z,9.97
2023-05-12T01:10:00.912Z,11.60
2023-05-12T01:12:28.373Z,10.40
2023-05-12T01:14:57.307Z,10.20
2023-05-12T01:17:35.828Z,9.67
2023-05-12T01:20:06.544Z,11.30
2023-05-12T01:22:34.387Z,9.97
2023-05-12T01:25:08.583Z,9.50
2023-05-12T01:27:37.237Z,10.20
2023-05-12T01:30:06.772Z,10.03
2023-05-12T01:32:35.183Z,10.40
2023-05-12T01:35:02.036Z,14.53
2023-05-12T01:37:28.908Z,10.20
2023-05-12T01:39:55.790Z,10.33
2023-05-12T01:42:22.842Z,9.57
2023-05-12T01:44:49.717Z,11.47
2023-05-12T01:47:16.532Z,10.60
2023-05-12T01:49:43.389Z,8.67
2023-05-12T01:52:10.413Z,8.70
2023-05-12T01:54:37.236Z,10.87
2023-05-12T01:57:04.490Z,9.30
2023-05-12T01:59:31.475Z,8.50
2023-05-12T02:01:58.338Z,8.67
2023-05-12T02:04:25.242Z,11.50
2023-05-12T02:06:52.128Z,8.33
2023-05-12T02:09:18.981Z,8.50
2023-05-12T02:11:45.788Z,8.13
2023-05-12T02:14:12.591Z,8.60
2023-05-12T02:16:39.416Z,7.77
2023-05-12T02:19:06.458Z,7.70
2023-05-12T02:21:33.498Z,7.73
2023-05-12T02:24:00.380Z,8.50
2023-05-12T02:26:27.323Z,7.57
2023-05-12T02:28:55.065Z,10.80
2023-05-12T02:31:21.902Z,8.60
2023-05-12T02:33:48.767Z,7.80
2023-05-12T02:36:15.566Z,7.90
2023-05-12T02:38:42.392Z,8.67
2023-05-12T02:41:09.297Z,8.40
2023-05-12T02:43:36.125Z,7.63
2023-05-12T02:46:02.999Z,8.13
2023-05-12T02:48:29.913Z,8.23
2023-05-12T02:50:56.753Z,7.10
2023-05-12T02:53:23.722Z,7.37
2023-05-12T02:55:50.640Z,7.70
2023-05-12T02:58:17.485Z,6.63
2023-05-12T03:00:44.491Z,8.10
2023-05-12T03:03:11.389Z,7.63
2023-05-12T03:05:38.482Z,7.00
2023-05-12T03:08:05.645Z,7.20
2023-05-12T03:10:32.781Z,7.80
2023-05-12T03:12:59.658Z,7.03
2023-05-12T03:15:26.503Z,7.37
2023-05-12T03:17:53.397Z,8.63
2023-05-12T03:20:20.470Z,8.70
2023-05-12T03:22:47.730Z,7.33
2023-05-12T03:25:15.736Z,8.70
2023-05-12T03:27:43.929Z,7.90
2023-05-12T03:30:12.180Z,7.40
2023-05-12T03:32:39.177Z,8.27
2023-05-12T03:35:07.118Z,6.40
2023-05-12T03:37:34.113Z,7.90
2023-05-12T03:40:00.969Z,8.20
2023-05-12T03:42:27.792Z,9.63
2023-05-12T03:44:55.262Z,7.07
2023-05-12T03:47:22.241Z,7.20
2023-05-12T03:49:49.169Z,7.97
2023-05-12T03:52:16.062Z,9.27
2023-05-12T03:54:42.912Z,8.90
2023-05-12T03:57:09.736Z,9.33
2023-05-12T03:59:36.618Z,7.57
2023-05-12T04:02:03.559Z,7.03
2023-05-12T04:04:30.393Z,8.70
2023-05-12T04:06:57.236Z,7.87
2023-05-12T04:09:24.119Z,9.10
2023-05-12T04:11:50.956Z,8.57
2023-05-12T04:14:17.812Z,8.60
2023-05-12T04:16:44.765Z,8.67
2023-05-12T04:19:11.605Z,8.07
2023-05-12T04:21:38.553Z,7.90
2023-05-12T04:24:06.088Z,8.90
2023-05-12T04:26:32.927Z,9.07
2023-05-12T04:28:59.870Z,9.30
2023-05-12T04:31:26.715Z,7.93
2023-05-12T04:33:53.703Z,8.80
2023-05-12T04:36:20.612Z,8.70
2023-05-12T04:38:47.502Z,9.30
2023-05-12T04:41:14.414Z,9.37
2023-05-12T04:46:11.011Z,8.13
2023-05-12T04:48:37.881Z,7.43
2023-05-12T04:51:04.753Z,9.23
2023-05-12T04:53:31.592Z,8.43
2023-05-12T04:55:58.356Z,8.90
2023-05-12T04:58:25.239Z,7.87
2023-05-12T05:00:52.744Z,8.50
2023-05-12T05:03:19.761Z,8.10
2023-05-12T05:05:46.836Z,9.13
2023-05-12T05:08:13.651Z,8.37
2023-05-12T05:10:40.631Z,7.27
2023-05-12T05:13:07.499Z,8.20
2023-05-12T05:15:34.390Z,7.47
2023-05-12T05:18:02.189Z,9.00
2023-05-12T05:20:29.422Z,9.47
2023-05-12T05:22:56.431Z,9.80
2023-05-12T05:25:23.263Z,8.43
2023-05-12T05:27:50.115Z,7.93
2023-05-12T05:30:17.094Z,7.90
2023-05-12T05:32:44.093Z,7.57
2023-05-12T05:35:11.214Z,7.70
2023-05-12T05:37:38.117Z,7.20
2023-05-12T05:40:06.050Z,11.67
2023-05-12T05:42:32.922Z,7.03
2023-05-12T05:44:59.800Z,8.33
2023-05-12T05:47:26.707Z,7.17
2023-05-12T05:49:53.644Z,7.50
2023-05-12T05:52:20.530Z,7.80
2023-05-12T05:54:47.311Z,7.63
2023-05-12T05:57:14.222Z,7.87
2023-05-12T05:59:41.034Z,8.07
2023-05-12T06:02:07.942Z,8.53
2023-05-12T06:04:34.824Z,7.77
2023-05-12T06:07:01.705Z,8.97
2023-05-12T06:09:28.624Z,7.63
2023-05-12T06:11:55.656Z,7.37
2023-05-12T06:14:22.596Z,8.43
2023-05-12T06:16:49.641Z,9.40
2023-05-12T06:19:16.510Z,7.80
2023-05-12T06:21:43.353Z,7.93
2023-05-12T06:24:10.191Z,9.40
2023-05-12T06:26:37.298Z,8.00
2023-05-12T06:29:07.317Z,8.10
2023-05-12T06:31:34.285Z,7.77
2023-05-12T06:34:01.177Z,7.70
2023-05-12T06:36:28.038Z,7.50
2023-05-12T06:38:54.906Z,8.40
2023-05-12T06:41:21.810Z,8.00
2023-05-12T06:43:48.680Z,7.67
2023-05-12T06:46:15.553Z,7.53
2023-05-12T06:48:42.459Z,7.50
2023-05-12T06:51:09.582Z,6.93
2023-05-12T06:53:36.510Z,6.70
2023-05-12T06:56:07.063Z,8.30
2023-05-12T06:58:34.367Z,7.03
2023-05-12T07:01:01.333Z,7.40
2023-05-12T07:03:32.561Z,6.97
2023-05-12T07:05:59.678Z,6.70
2023-05-12T07:08:27.305Z,6.40
2023-05-12T07:10:54.220Z,7.07
2023-05-12T07:13:21.128Z,5.43
2023-05-12T07:15:48.077Z,6.07
2023-05-12T07:18:14.998Z,6.70
2023-05-12T07:20:41.906Z,6.00
2023-05-12T07:23:08.798Z,5.67
2023-05-12T07:25:36.129Z,6.20
2023-05-12T07:28:03.173Z,7.10
2023-05-12T07:30:30.148Z,6.33
2023-05-12T07:32:57.202Z,5.07
2023-05-12T07:35:24.582Z,5.83
2023-05-12T07:37:51.418Z,6.23
2023-05-12T07:40:18.502Z,5.07
2023-05-12T07:42:45.387Z,6.13
2023-05-12T07:45:12.294Z,5.60
2023-05-12T07:47:39.375Z,6.00
2023-05-12T07:50:06.841Z,6.00
2023-05-12T07:52:33.882Z,6.30
2023-05-12T07:55:00.762Z,5.30
2023-05-12T07:57:27.614Z,6.17
2023-05-12T07:59:54.528Z,5.80
2023-05-12T08:02:21.361Z,5.83
2023-05-12T08:04:48.317Z,8.50
2023-05-12T08:07:15.122Z,6.07
2023-05-12T08:09:41.982Z,6.77
2023-05-12T08:12:09.191Z,6.60
2023-05-12T08:14:36.215Z,5.93
2023-05-12T08:17:03.169Z,6.07
2023-05-12T08:19:30.023Z,6.73
2023-05-12T08:21:56.905Z,6.00
2023-05-12T08:24:23.664Z,5.23
2023-05-12T08:26:50.488Z,5.40
2023-05-12T08:29:17.273Z,5.60
2023-05-12T08:31:44.213Z,5.93
2023-05-12T08:34:11.370Z,6.83
2023-05-12T08:36:41.883Z,5.73
2023-05-12T08:39:09.038Z,5.70
2023-05-12T08:41:59.991Z,4.97
2023-05-12T08:44:27.387Z,6.03
2023-05-12T08:46:57.531Z,5.90
2023-05-12T08:49:27.320Z,6.10
2023-05-12T08:51:58.295Z,6.03
2023-05-12T08:54:28.262Z,5.97
2023-05-12T08:59:26.689Z,6.20
2023-05-12T09:01:55.392Z,6.40
2023-05-12T09:04:22.405Z,5.57
2023-05-12T09:06:49.495Z,5.53
2023-05-12T09:09:17.901Z,5.50
2023-05-12T09:11:45.476Z,4.13
2023-05-12T09:14:19.190Z,5.13
2023-05-12T09:16:49.474Z,5.30
2023-05-12T09:19:21.360Z,4.90
2023-05-12T09:21:49.114Z,4.50
2023-05-12T09:24:16.232Z,4.97
2023-05-12T09:26:54.823Z,4.53
2023-05-12T09:29:31.420Z,5.20
2023-05-12T09:32:04.101Z,4.43
2023-05-12T09:34:33.821Z,5.23
2023-05-12T09:37:04.438Z,4.50
2023-05-12T09:39:31.543Z,4.80
2023-05-12T09:41:58.416Z,4.33
2023-05-12T09:44:26.640Z,5.27
2023-05-12T09:46:53.500Z,3.90
2023-05-12T09:49:24.858Z,4.50
2023-05-12T09:51:59.107Z,4.57
2023-05-12T09:54:32.981Z,6.43
2023-05-12T09:57:05.350Z,3.77
2023-05-12T09:59:35.484Z,4.40
2023-05-12T10:02:06.215Z,4.00
2023-05-12T10:04:42.988Z,4.30
2023-05-12T10:07:13.692Z,3.60
2023-05-12T10:09:43.413Z,3.70
2023-05-12T10:12:11.342Z,4.27
2023-05-12T10:14:38.842Z,4.27
2023-05-12T10:17:06.512Z,4.83
2023-05-12T10:19:33.339Z,4.10
2023-05-12T10:22:01.074Z,4.50
2023-05-12T10:24:29.323Z,5.03
2023-05-12T10:26:56.664Z,4.70
2023-05-12T10:29:27.604Z,4.37
2023-05-12T10:31:54.474Z,4.73
2023-05-12T10:34:21.559Z,4.57
2023-05-12T10:36:51.809Z,3.53
2023-05-12T10:39:18.771Z,3.97
2023-05-12T10:41:45.601Z,3.57
2023-05-12T10:44:12.606Z,3.90
2023-05-12T10:46:39.531Z,3.73
2023-05-12T10:49:06.392Z,3.20
2023-05-12T10:51:45.083Z,3.87
2023-05-12T10:54:25.961Z,3.17
2023-05-12T10:56:58.956Z,3.37
2023-05-12T10:59:27.257Z,3.10
2023-05-12T11:02:01.897Z,2.77
2023-05-12T11:04:43.407Z,3.13
2023-05-12T11:07:14.290Z,3.50
2023-05-12T11:09:57.824Z,3.47
2023-05-12T11:12:32.028Z,3.47
2023-05-12T11:15:04.715Z,3.00
2023-05-12T11:17:31.925Z,3.80
2023-05-12T11:19:59.240Z,3.63
2023-05-12T11:22:26.168Z,3.23
2023-05-12T11:24:53.580Z,3.40
2023-05-12T11:27:23.182Z,2.80
2023-05-12T11:30:02.738Z,2.93
2023-05-12T11:32:30.479Z,3.83
2023-05-12T11:35:18.941Z,3.53
2023-05-12T11:37:46.973Z,3.57
2023-05-12T11:40:20.355Z,3.13
2023-05-12T11:42:50.007Z,3.60
2023-05-12T11:45:35.084Z,3.47
2023-05-12T11:48:13.920Z,3.40
2023-05-12T11:50:45.069Z,3.70
2023-05-12T11:53:15.224Z,3.43
2023-05-12T11:55:55.616Z,4.00
2023-05-12T11:58:25.100Z,3.17
2023-05-12T12:00:53.793Z,3.40
2023-05-12T12:03:21.384Z,3.80
2023-05-12T12:06:01.296Z,2.73
2023-05-12T12:08:28.485Z,3.07
2023-05-12T12:10:55.500Z,3.53
2023-05-12T12:13:26.614Z,4.07
2023-05-12T12:15:53.546Z,3.50
2023-05-12T12:18:20.611Z,4.23
2023-05-12T12:20:47.802Z,3.33
2023-05-12T12:23:14.908Z,4.10
2023-05-12T12:25:41.916Z,3.60
2023-05-12T12:28:08.833Z,3.33
2023-05-12T12:30:35.734Z,3.57
2023-05-12T12:33:02.700Z,3.63
2023-05-12T12:35:29.643Z,2.90
2023-05-12T12:37:56.517Z,2.90
2023-05-12T12:40:23.334Z,3.07
2023-05-12T12:42:50.301Z,3.03
2023-05-12T12:45:19.371Z,2.80
2023-05-12T12:47:47.309Z,2.43
2023-05-12T12:50:14.302Z,2.40
2023-05-12T12:52:41.224Z,2.77
2023-05-12T12:55:09.184Z,4.00
2023-05-12T12:57:36.041Z,2.70
2023-05-12T13:00:04.321Z,3.53
2023-05-12T13:02:31.353Z,3.30
2023-05-12T13:04:58.542Z,4.73
2023-05-12T13:07:25.422Z,2.90
2023-05-12T13:09:55.370Z,3.03
2023-05-12T13:12:22.460Z,2.87
2023-05-12T13:14:49.725Z,3.83
2023-05-12T13:17:16.743Z,3.83
2023-05-12T13:19:43.987Z,3.70
2023-05-12T13:22:11.064Z,3.07
2023-05-12T13:24:37.892Z,3.20
2023-05-12T13:27:05.189Z,3.13
2023-05-12T13:29:32.060Z,2.80
2023-05-12T13:31:58.894Z,2.90
2023-05-12T13:34:25.824Z,2.70
2023-05-12T13:36:52.619Z,2.90
2023-05-12T13:39:19.770Z,2.93
2023-05-12T13:41:46.885Z,3.00
2023-05-12T13:44:13.737Z,3.43
2023-05-12T13:46:40.691Z,3.20
2023-05-12T13:49:07.572Z,2.77
2023-05-12T13:51:34.336Z,2.70
2023-05-12T13:54:01.193Z,3.47
2023-05-12T13:56:28.329Z,3.50
2023-05-12T13:58:56.346Z,3.10
2023-05-12T14:01:23.363Z,3.23
2023-05-12T14:03:50.313Z,3.03
2023-05-12T14:06:17.203Z,4.00
2023-05-12T14:08:44.107Z,3.17
2023-05-12T14:11:10.946Z,3.60
2023-05-12T14:13:37.891Z,3.03
2023-05-12T14:16:05.831Z,3.77
2023-05-12T14:18:32.721Z,3.40
2023-05-12T14:21:00.102Z,3.07
2023-05-12T14:23:27.228Z,3.03
2023-05-12T14:25:54.245Z,2.50
2023-05-12T14:28:21.219Z,3.83
2023-05-12T14:30:48.224Z,2.80
2023-05-12T14:33:15.565Z,2.90
2023-05-12T14:35:44.689Z,3.00
2023-05-12T14:38:15.425Z,3.93
2023-05-12T14:40:42.863Z,2.93
2023-05-12T14:43:09.688Z,3.27
2023-05-12T14:45:36.633Z,3.70
2023-05-12T14:48:03.852Z,3.63
2023-05-12T14:50:31.145Z,3.50
2023-05-12T14:52:58.119Z,3.60
2023-05-12T14:55:25.066Z,3.23
2023-05-12T14:57:52.052Z,6.37
2023-05-12T15:00:19.449Z,3.27
2023-05-12T15:02:46.420Z,2.87
2023-05-12T15:05:13.923Z,3.10
2023-05-12T15:07:41.056Z,3.20
2023-05-12T15:10:08.479Z,2.97
2023-05-12T15:12:35.825Z,3.10
2023-05-12T15:15:02.728Z,4.27
2023-05-12T15:17:29.703Z,3.63
2023-05-12T15:19:56.964Z,3.60
2023-05-12T15:22:23.807Z,3.60
2023-05-12T15:24:50.748Z,3.20
2023-05-12T15:27:17.648Z,3.77
2023-05-12T15:29:44.489Z,3.47
2023-05-12T15:32:11.391Z,3.57
2023-05-12T15:34:38.302Z,2.80
2023-05-12T15:37:05.409Z,2.30
2023-05-12T15:39:32.190Z,3.47
2023-05-12T15:41:59.114Z,2.93
2023-05-12T15:44:26.068Z,3.03
2023-05-12T15:46:53.267Z,2.87
2023-05-12T15:49:20.146Z,3.00
2023-05-12T15:51:47.058Z,2.60
2023-05-12T15:54:13.996Z,4.10
2023-05-12T15:56:40.950Z,7.07
2023-05-12T15:59:07.890Z,3.23
2023-05-12T16:01:34.723Z,2.90
2023-05-12T16:04:01.785Z,3.10
2023-05-12T16:06:28.637Z,2.90
2023-05-12T16:08:55.699Z,3.20
2023-05-12T16:11:22.537Z,2.80
2023-05-12T16:13:51.924Z,2.73
2023-05-12T16:16:19.881Z,2.70
2023-05-12T16:18:46.729Z,3.30
2023-05-12T16:21:13.833Z,2.60
2023-05-12T16:23:41.058Z,8.07
2023-05-12T16:26:07.923Z,6.37
2023-05-12T16:28:34.823Z,4.00
2023-05-12T16:31:02.644Z,3.30
2023-05-12T16:33:29.737Z,3.70
2023-05-12T16:35:56.681Z,3.13
2023-05-12T16:38:23.725Z,2.73
2023-05-12T16:40:50.681Z,3.33
2023-05-12T16:43:17.642Z,2.13
2023-05-12T16:45:44.688Z,3.00
2023-05-12T16:48:11.462Z,2.80
2023-05-12T16:50:38.339Z,3.00
2023-05-12T16:53:05.360Z,2.97
2023-05-12T16:55:32.196Z,2.60
2023-05-12T16:57:59.079Z,2.50
2023-05-12T17:00:25.925Z,2.57
2023-05-12T17:02:52.877Z,5.60
2023-05-12T17:05:20.080Z,3.40
2023-05-12T17:07:47.082Z,3.07
2023-05-12T17:10:13.958Z,2.93
2023-05-12T17:12:40.814Z,2.83
2023-05-12T17:15:08.862Z,3.20
2023-05-12T17:17:36.113Z,3.33
2023-05-12T17:20:03.637Z,2.93
2023-05-12T17:22:30.585Z,2.60
2023-05-12T17:24:57.458Z,3.03
2023-05-12T17:27:24.313Z,3.27
2023-05-12T17:29:51.197Z,2.53
2023-05-12T17:32:18.016Z,3.13
2023-05-12T17:34:44.853Z,2.97
2023-05-12T17:37:11.806Z,3.30
2023-05-12T17:39:38.577Z,3.63
2023-05-12T17:42:06.465Z,3.30
2023-05-12T17:44:33.245Z,3.40
2023-05-12T17:47:00.250Z,3.20
2023-05-12T17:49:27.272Z,3.60
2023-05-12T17:51:55.342Z,4.37
2023-05-12T17:54:22.362Z,3.33
2023-05-12T17:56:49.200Z,3.80
2023-05-12T17:59:20.594Z,3.10
2023-05-12T18:01:48.631Z,3.40
2023-05-12T18:04:17.175Z,3.80
2023-05-12T18:06:48.679Z,3.50
2023-05-12T18:09:23.348Z,3.63
2023-05-12T18:11:55.648Z,3.57
2023-05-12T18:14:22.863Z,3.40
2023-05-12T18:16:50.612Z,3.80
2023-05-12T18:19:18.237Z,3.83
2023-05-12T18:21:45.433Z,3.30
2023-05-12T18:24:12.325Z,3.43
2023-05-12T18:26:39.578Z,3.50
2023-05-12T18:29:06.482Z,3.90
2023-05-12T18:31:34.015Z,3.40
2023-05-12T18:34:04.039Z,3.80
2023-05-12T18:36:31.157Z,3.00
2023-05-12T18:38:57.923Z,3.80
2023-05-12T18:41:25.893Z,4.73
2023-05-12T18:43:53.164Z,3.53
2023-05-12T18:46:20.099Z,3.43
2023-05-12T18:48:47.210Z,3.03
2023-05-12T18:51:15.522Z,3.70
2023-05-12T18:53:43.520Z,3.70
2023-05-12T18:56:17.123Z,4.30
2023-05-12T18:58:44.208Z,4.40
2023-05-12T19:01:14.794Z,5.73
2023-05-12T19:03:43.373Z,4.40
2023-05-12T19:06:13.946Z,4.93
2023-05-12T19:08:42.194Z,5.43
2023-05-12T19:11:10.584Z,4.87
2023-05-12T19:13:37.877Z,5.23
2023-05-12T19:16:05.889Z,4.20
2023-05-12T19:18:45.393Z,4.53
2023-05-12T19:21:19.389Z,4.70
2023-05-12T19:23:46.761Z,4.73
2023-05-12T19:26:20.447Z,5.70
2023-05-12T19:28:50.198Z,5.10
2023-05-12T19:31:17.204Z,4.97
2023-05-12T19:33:47.905Z,5.23
2023-05-12T19:36:15.206Z,5.10
2023-05-12T19:38:42.012Z,5.87
2023-05-12T19:41:09.202Z,6.00
2023-05-12T19:43:39.116Z,6.50
2023-05-12T19:46:06.134Z,5.63
2023-05-12T19:48:33.303Z,5.57
2023-05-12T19:51:05.466Z,5.90
2023-05-12T19:53:32.325Z,5.47
2023-05-12T19:55:59.123Z,5.43
2023-05-12T19:58:26.020Z,5.63
2023-05-12T20:00:53.104Z,6.07
2023-05-12T20:03:20.256Z,5.87
2023-05-12T20:05:48.525Z,7.10
2023-05-12T20:08:15.669Z,7.60
2023-05-12T20:10:42.502Z,6.90
2023-05-12T20:13:09.393Z,7.57
2023-05-12T20:15:36.250Z,6.47
2023-05-12T20:18:03.175Z,7.10
2023-05-12T20:20:30.393Z,7.87
2023-05-12T20:22:57.251Z,6.80
2023-05-12T20:25:24.160Z,6.10
2023-05-12T20:27:51.020Z,6.90
2023-05-12T20:30:17.909Z,7.23
2023-05-12T20:32:46.258Z,6.90
2023-05-12T20:35:13.187Z,6.53
2023-05-12T20:37:40.048Z,8.33
2023-05-12T20:40:07.802Z,6.13
2023-05-12T20:42:35.206Z,6.60
2023-05-12T20:45:02.734Z,7.17
2023-05-12T20:47:29.675Z,7.93
2023-05-12T20:49:57.454Z,6.60
2023-05-12T20:52:24.615Z,8.03
2023-05-12T20:54:57.527Z,6.97
2023-05-12T20:57:25.217Z,8.00
2023-05-12T20:59:52.280Z,7.67
2023-05-12T21:02:20.131Z,8.50
2023-05-12T21:04:47.014Z,5.87
2023-05-12T21:07:13.914Z,7.07
2023-05-12T21:09:41.125Z,7.90
2023-05-12T21:12:08.691Z,7.50
2023-05-12T21:14:40.670Z,7.20
2023-05-12T21:17:09.165Z,7.20
2023-05-12T21:19:38.302Z,7.20
2023-05-12T21:22:06.828Z,6.43
2023-05-12T21:24:33.899Z,6.63
2023-05-12T21:27:05.833Z,6.30
2023-05-12T21:29:34.094Z,5.43
2023-05-12T21:32:01.369Z,6.90
2023-05-12T21:34:28.671Z,7.40
2023-05-12T21:36:55.601Z,7.73
2023-05-12T21:39:22.537Z,5.90
2023-05-12T21:41:49.405Z,6.60
2023-05-12T21:44:16.354Z,5.97
2023-05-12T21:46:43.339Z,7.53
2023-05-12T21:49:10.465Z,5.97
2023-05-12T21:51:37.329Z,6.60
2023-05-12T21:54:04.353Z,7.30
2023-05-12T21:56:31.265Z,7.47
2023-05-12T21:58:58.060Z,7.30
2023-05-12T22:01:25.021Z,6.10
2023-05-12T22:03:52.034Z,6.53
2023-05-12T22:06:18.897Z,6.25
2023-05-12T22:08:45.753Z,6.90
2023-05-12T22:11:12.573Z,6.00
2023-05-12T22:13:39.424Z,6.60
2023-05-12T22:16:06.665Z,5.83
2023-05-12T22:18:33.641Z,6.23
2023-05-12T22:21:00.530Z,6.70
2023-05-12T22:23:27.442Z,5.83
2023-05-12T22:25:54.378Z,5.10
2023-05-12T22:28:21.220Z,6.47
2023-05-12T22:30:48.092Z,5.10
2023-05-12T22:33:14.986Z,5.10
2023-05-12T22:35:41.884Z,5.73
2023-05-12T22:38:08.715Z,6.13
2023-05-12T22:40:35.606Z,6.33
2023-05-12T22:43:02.933Z,6.43
2023-05-12T22:45:29.894Z,5.00
2023-05-12T22:47:56.870Z,5.90
2023-05-12T22:50:24.068Z,5.77
2023-05-12T22:52:51.188Z,7.40
2023-05-12T22:55:18.051Z,6.70
2023-05-12T22:57:44.938Z,7.00
2023-05-12T23:00:12.527Z,6.50
2023-05-12T23:02:39.429Z,7.43
2023-05-12T23:05:07.201Z,7.83
2023-05-12T23:07:34.047Z,7.47
2023-05-12T23:10:00.853Z,6.27
2023-05-12T23:12:28.212Z,6.93
2023-05-12T23:14:55.033Z,8.30
2023-05-12T23:17:21.911Z,7.87
2023-05-12T23:19:48.784Z,7.07
2023-05-12T23:22:15.656Z,8.07
2023-05-12T23:24:42.530Z,9.07
2023-05-12T23:27:09.659Z,10.50
2023-05-12T23:29:36.608Z,8.80
2023-05-12T23:32:03.696Z,7.33
2023-05-12T23:34:30.542Z,8.57
2023-05-12T23:36:57.412Z,10.27
2023-05-12T23:39:24.220Z,10.00
2023-05-12T23:41:51.116Z,9.50
2023-05-12T23:44:17.943Z,10.33
2023-05-12T23:46:44.874Z,9.87
2023-05-12T23:49:11.678Z,11.10
2023-05-12T23:51:38.522Z,10.73
2023-05-12T23:54:05.410Z,11.03
2023-05-12T23:56:32.345Z,9.80
2023-05-12T23:58:59.160Z,10.23
